Time;durP1;ratioP1;P1;durP2;ratioP2;P2;SDS_P1;SDS_P2;PMS_P1;PMS_P2;Temp;Humidity;BMP_temperature;BMP_pressure;BME280_temperature;BME280_humidity;BME280_pressure;Samples;Min_cycle;Max_cycle;Signal;HPM_P1;HPM_P2
2022/06/07 00:00:01;;;;;;;;;;;;;;;;;;6230803;23;19919;-88
2022/06/07 00:02:33;;;;;;;;;;;;;;;;;;6202293;23;19919;-88
2022/06/07 00:04:59;;;;;;;;;;;;;;;;;;6203207;23;19927;-88
2022/06/07 00:07:26;;;;;;;;;;;;;;;;;;6229375;23;19927;-88
2022/06/07 00:09:52;;;;;;;;;;;;;;;;;;6233525;23;19920;-88
2022/06/07 00:12:20;;;;;;;;;;;;;;;;;;6207333;23;19916;-88
2022/06/07 00:14:47;;;;;;;;;;;;;;;;;;6228198;23;20744;-88
2022/06/07 00:17:13;;;;;;;;;;;;;;;;;;6203735;23;19970;-88
2022/06/07 00:19:40;;;;;;;;;;;;;;;;;;6203405;23;20328;-88
2022/06/07 00:22:08;;;;;;;;;;;;;;;;;;6229583;23;19919;-88
2022/06/07 00:24:35;;;;;;;;;;;;;;;;;;6227376;23;20357;-88
2022/06/07 00:27:01;;;;;;;;;;;;;;;;;;6200857;23;19919;-88
2022/06/07 00:29:29;;;;;;;;;;;;;;;;;;6223293;23;19915;-88
2022/06/07 00:31:58;;;;;;;;;;;;;;;;;;6201851;23;19920;-89
2022/06/07 00:34:25;;;;;;;;;;;;;;;;;;6224866;23;19944;-88
2022/06/07 00:36:52;;;;;;;;;;;;;;;;;;6225839;23;19963;-88
2022/06/07 00:39:34;;;;;;;;;;;;;;;;;;6224235;22;20093;-88
2022/06/07 00:42:02;;;;;;;;;;;;;;;;;;6202068;23;20045;-88
2022/06/07 00:44:29;;;;;;;;;;;;;;;;;;6223018;23;19990;-88
2022/06/07 00:46:56;;;;;;;;;;;;;;;;;;6227057;23;19923;-88
2022/06/07 00:49:22;;;;;;;;;;;;;;;;;;6225463;23;19919;-88
2022/06/07 00:51:49;;;;;;;;;;;;;;;;;;6224166;23;19928;-88
2022/06/07 00:54:25;;;;;;;;;;;;;;;;;;6223070;23;19981;-88
2022/06/07 00:56:51;;;;;;;;;;;;;;;;;;6228083;23;19998;-88
2022/06/07 00:59:17;;;;;;;;;;;;;;;;;;6227868;23;19951;-88
2022/06/07 01:01:45;;;;;;;;;;;;;;;;;;6228395;22;19919;-88
2022/06/07 01:04:30;;;;;;;;;;;;;;;;;;6226226;23;19927;-88
2022/06/07 01:12:46;;;;;;;;;;;;;;;;;;6139529;23;19927;-88
2022/06/07 01:15:13;;;;;;;;;;;;;;;;;;6140539;23;20234;-87
2022/06/07 01:17:53;;;;;;;;;;;;;;;;;;6166503;23;19940;-88
2022/06/07 01:20:20;;;;;;;;;;;;;;;;;;6165900;23;20525;-88
2022/06/07 01:22:46;;;;;;;;;;;;;;;;;;6164300;23;19994;-88
2022/06/07 01:25:13;;;;;;;;;;;;;;;;;;6143171;23;19916;-88
2022/06/07 01:27:39;;;;;;;;;;;;;;;;;;6114637;23;19955;-87
2022/06/07 01:30:04;;;;;;;;;;;;;;;;;;6117640;23;20087;-88
2022/06/07 01:32:32;;;;;;;;;;;;;;;;;;6112313;23;20304;-89
2022/06/07 01:34:59;;;;;;;;;;;;;;;;;;6119544;23;19943;-88
2022/06/07 01:37:26;;;;;;;;;;;;;;;;;;6121983;23;20590;-89
2022/06/07 01:42:48;;;;;;;;;;;;;;;;;;6171099;23;19927;-88
2022/06/07 01:45:14;;;;;;;;;;;;;;;;;;6173602;23;19924;-88
2022/06/07 01:47:41;;;;;;;;;;;;;;;;;;6146990;23;19920;-88
2022/06/07 01:50:09;;;;;;;;;;;;;;;;;;6175695;23;19916;-89
2022/06/07 01:52:36;;;;;;;;;;;;;;;;;;6148932;23;19924;-89
2022/06/07 01:55:04;;;;;;;;;;;;;;;;;;6174832;23;19950;-89
2022/06/07 01:57:30;;;;;;;;;;;;;;;;;;6172872;23;19924;-88
2022/06/07 01:59:58;;;;;;;;;;;;;;;;;;6174948;23;19919;-88
2022/06/07 02:02:27;;;;;;;;;;;;;;;;;;6198612;23;19920;-89
2022/06/07 02:05:17;;;;;;;;;;;;;;;;;;6202717;23;19966;-88
2022/06/07 02:07:46;;;;;;;;;;;;;;;;;;6235454;22;20402;-88
2022/06/07 02:10:12;;;;;;;;;;;;;;;;;;6213303;22;20247;-88
2022/06/07 02:12:39;;;;;;;;;;;;;;;;;;6210415;22;19994;-88
2022/06/07 02:15:06;;;;;;;;;;;;;;;;;;6261348;22;19969;-88
2022/06/07 02:17:34;;;;;;;;;;;;;;;;;;6234577;22;19942;-87
2022/06/07 02:20:01;;;;;;;;;;;;;;;;;;6233301;22;19919;-87
2022/06/07 02:22:27;;;;;;;;;;;;;;;;;;6229936;22;19951;-88
2022/06/07 02:24:54;;;;;;;;;;;;;;;;;;6204247;22;20298;-88
2022/06/07 02:27:20;;;;;;;;;;;;;;;;;;6232225;22;19972;-87
2022/06/07 02:29:48;;;;;;;;;;;;;;;;;;6229761;22;19926;-88
2022/06/07 02:32:15;;;;;;;;;;;;;;;;;;6207221;22;19926;-87
2022/06/07 02:34:42;;;;;;;;;;;;;;;;;;6205481;22;19919;-87
2022/06/07 02:37:11;;;;;;;;;;;;;;;;;;6231843;22;20252;-88
2022/06/07 02:39:39;;;;;;;;;;;;;;;;;;6230721;22;20328;-88
2022/06/07 02:42:09;;;;;;;;;;;;;;;;;;6233445;22;20342;-88
2022/06/07 02:44:35;;;;;;;;;;;;;;;;;;6203799;22;19989;-88
2022/06/07 02:47:02;;;;;;;;;;;;;;;;;;6231198;22;19919;-88
2022/06/07 02:49:38;;;;;;;;;;;;;;;;;;6255501;22;19925;-88
2022/06/07 02:52:05;;;;;;;;;;;;;;;;;;6230588;22;20426;-88
2022/06/07 02:54:31;;;;;;;;;;;;;;;;;;6229002;22;19926;-87
2022/06/07 02:57:04;;;;;;;;;;;;;;;;;;6231742;22;19931;-87
2022/06/07 02:59:31;;;;;;;;;;;;;;;;;;6203867;22;19915;-87
2022/06/07 03:02:00;;;;;;;;;;;;;;;;;;6257758;22;19985;-88
2022/06/07 03:04:44;;;;;;;;;;;;;;;;;;6253275;22;19950;-87
2022/06/07 03:07:17;;;;;;;;;;;;;;;;;;6226930;23;19981;-87
2022/06/07 03:09:47;;;;;;;;;;;;;;;;;;6201651;23;19970;-87
2022/06/07 03:12:14;;;;;;;;;;;;;;;;;;6230130;23;19951;-88
2022/06/07 03:14:41;;;;;;;;;;;;;;;;;;6224981;23;19919;-87
2022/06/07 03:17:07;;;;;;;;;;;;;;;;;;6175878;23;19923;-87
2022/06/07 03:19:35;;;;;;;;;;;;;;;;;;6198708;23;19919;-87
2022/06/07 03:22:09;;;;;;;;;;;;;;;;;;6178393;23;19922;-87
2022/06/07 03:24:36;;;;;;;;;;;;;;;;;;6198582;23;20354;-87
2022/06/07 03:27:05;;;;;;;;;;;;;;;;;;6229818;23;19919;-87
2022/06/07 03:29:37;;;;;;;;;;;;;;;;;;6226611;23;20371;-87
2022/06/07 03:32:06;;;;;;;;;;;;;;;;;;6228816;23;19988;-87
2022/06/07 03:34:34;;;;;;;;;;;;;;;;;;6200346;23;19965;-87
2022/06/07 03:37:00;;;;;;;;;;;;;;;;;;6201693;23;20279;-87
2022/06/07 03:39:27;;;;;;;;;;;;;;;;;;6198634;23;19927;-87
2022/06/07 03:41:54;;;;;;;;;;;;;;;;;;6203116;23;19930;-86
2022/06/07 03:44:35;;;;;;;;;;;;;;;;;;6160848;23;19920;-88
2022/06/07 03:47:01;;;;;;;;;;;;;;;;;;6121794;23;19939;-87
2022/06/07 03:49:34;;;;;;;;;;;;;;;;;;6144045;23;19927;-87
2022/06/07 03:52:01;;;;;;;;;;;;;;;;;;6172786;23;19941;-87
2022/06/07 03:54:28;;;;;;;;;;;;;;;;;;6170650;23;20337;-87
2022/06/07 03:56:54;;;;;;;;;;;;;;;;;;6173219;23;20474;-88
2022/06/07 03:59:20;;;;;;;;;;;;;;;;;;6148532;23;19919;-87
2022/06/07 04:01:50;;;;;;;;;;;;;;;;;;6196982;23;19927;-87
2022/06/07 04:04:17;;;;;;;;;;;;;;;;;;6199495;23;19920;-87
2022/06/07 04:09:39;;;;;;;;;;;;;;;;;;6169312;23;20238;-87
2022/06/07 04:12:05;;;;;;;;;;;;;;;;;;6174584;23;20304;-87
2022/06/07 04:14:36;;;;;;;;;;;;;;;;;;6194540;23;20267;-87
2022/06/07 04:17:04;;;;;;;;;;;;;;;;;;6199364;23;19924;-87
2022/06/07 04:19:31;;;;;;;;;;;;;;;;;;6198495;23;20316;-88
2022/06/07 04:21:59;;;;;;;;;;;;;;;;;;6150608;23;19926;-88
2022/06/07 04:24:26;;;;;;;;;;;;;;;;;;6169644;23;19978;-88
2022/06/07 04:26:52;;;;;;;;;;;;;;;;;;6197243;23;19923;-87
2022/06/07 04:29:19;;;;;;;;;;;;;;;;;;6198756;23;19920;-87
2022/06/07 04:31:45;;;;;;;;;;;;;;;;;;6167999;23;19927;-87
2022/06/07 04:34:11;;;;;;;;;;;;;;;;;;6147956;23;19916;-87
2022/06/07 04:36:38;;;;;;;;;;;;;;;;;;6170000;23;19924;-87
2022/06/07 04:39:05;;;;;;;;;;;;;;;;;;6198773;23;19951;-88
2022/06/07 04:41:43;;;;;;;;;;;;;;;;;;6147911;23;19930;-88
2022/06/07 04:44:10;;;;;;;;;;;;;;;;;;6174619;23;19920;-88
2022/06/07 04:46:53;;;;;;;;;;;;;;;;;;6149989;23;19987;-87
2022/06/07 04:49:20;;;;;;;;;;;;;;;;;;6171473;23;19919;-88
2022/06/07 04:51:48;;;;;;;;;;;;;;;;;;6170553;23;19920;-88
2022/06/07 04:54:15;;;;;;;;;;;;;;;;;;6170857;23;19977;-87
2022/06/07 04:57:00;;;;;;;;;;;;;;;;;;6208155;23;20461;-88
2022/06/07 04:59:28;;;;;;;;;;;;;;;;;;6199273;23;19920;-87
2022/06/07 05:01:55;;;;;;;;;;;;;;;;;;6177149;23;19927;-88
2022/06/07 05:04:22;;;;;;;;;;;;;;;;;;6181164;23;19920;-88
2022/06/07 05:06:51;;;;;;;;;;;;;;;;;;6193581;23;19930;-88
2022/06/07 05:09:20;;;;;;;;;;;;;;;;;;6228301;23;19919;-88
2022/06/07 05:11:47;;;;;;;;;;;;;;;;;;6201970;23;19919;-88
2022/06/07 05:14:13;;;;;;;;;;;;;;;;;;6230260;23;19920;-88
2022/06/07 05:16:41;;;;;;;;;;;;;;;;;;6225598;23;20022;-88
2022/06/07 05:19:08;;;;;;;;;;;;;;;;;;6229922;23;19926;-88
2022/06/07 05:21:34;;;;;;;;;;;;;;;;;;6229708;23;20018;-87
2022/06/07 05:24:02;;;;;;;;;;;;;;;;;;6206929;23;20435;-89
2022/06/07 05:26:43;;;;;;;;;;;;;;;;;;6196477;23;19958;-87
2022/06/07 05:29:09;;;;;;;;;;;;;;;;;;6173936;23;19920;-88
2022/06/07 05:31:36;;;;;;;;;;;;;;;;;;6172216;23;19979;-87
2022/06/07 05:34:03;;;;;;;;;;;;;;;;;;6176157;23;19928;-87
2022/06/07 05:36:29;;;;;;;;;;;;;;;;;;6198072;23;19924;-87
2022/06/07 05:38:57;;;;;;;;;;;;;;;;;;6202405;23;19920;-87
2022/06/07 05:41:23;;;;;;;;;;;;;;;;;;6200593;23;19927;-86
2022/06/07 05:43:57;;;;;;;;;;;;;;;;;;6201730;23;19931;-87
2022/06/07 05:46:27;;;;;;;;;;;;;;;;;;6201029;23;19966;-88
2022/06/07 05:48:55;;;;;;;;;;;;;;;;;;6174684;23;19916;-87
2022/06/07 05:51:22;;;;;;;;;;;;;;;;;;6201782;23;19974;-87
2022/06/07 05:53:49;;;;;;;;;;;;;;;;;;6200593;23;20340;-87
2022/06/07 05:56:17;;;;;;;;;;;;;;;;;;6176049;23;19920;-88
2022/06/07 05:58:43;;;;;;;;;;;;;;;;;;6225243;23;20208;-86
2022/06/07 06:01:11;;;;;;;;;;;;;;;;;;6232692;23;19927;-87
2022/06/07 06:03:39;;;;;;;;;;;;;;;;;;6230466;23;19986;-86
2022/06/07 06:06:07;;;;;;;;;;;;;;;;;;6244195;22;19992;-86
2022/06/07 06:11:19;;;;;;;;;;;;;;;;;;6231709;22;20229;-88
2022/06/07 06:13:49;;;;;;;;;;;;;;;;;;6241134;22;19919;-88
2022/06/07 06:16:18;;;;;;;;;;;;;;;;;;6242451;22;19927;-87
2022/06/07 06:18:44;;;;;;;;;;;;;;;;;;6239740;22;20666;-87
2022/06/07 06:21:11;;;;;;;;;;;;;;;;;;6270239;22;19919;-88
2022/06/07 06:23:39;;;;;;;;;;;;;;;;;;6267563;22;20225;-87
2022/06/07 06:26:06;;;;;;;;;;;;;;;;;;6268624;22;19942;-87
2022/06/07 06:28:33;;;;;;;;;;;;;;;;;;6266888;22;19919;-88
2022/06/07 06:31:00;;;;;;;;;;;;;;;;;;6270612;22;19995;-87
2022/06/07 06:33:28;;;;;;;;;;;;;;;;;;6267554;22;19919;-89
2022/06/07 06:35:55;;;;;;;;;;;;;;;;;;6243093;22;19923;-89
2022/06/07 06:38:22;;;;;;;;;;;;;;;;;;6243174;22;20317;-88
2022/06/07 06:40:49;;;;;;;;;;;;;;;;;;6218079;22;19916;-89
2022/06/07 06:43:17;;;;;;;;;;;;;;;;;;6241863;22;20378;-89
2022/06/07 06:45:43;;;;;;;;;;;;;;;;;;6240242;22;19919;-89
2022/06/07 06:48:10;;;;;;;;;;;;;;;;;;6242212;22;19915;-88
2022/06/07 06:50:37;;;;;;;;;;;;;;;;;;6237516;22;19919;-90
2022/06/07 06:53:03;;;;;;;;;;;;;;;;;;6214456;22;19919;-88
2022/06/07 06:55:29;;;;;;;;;;;;;;;;;;6236856;22;19923;-89
2022/06/07 06:57:57;;;;;;;;;;;;;;;;;;6213770;22;20324;-88
2022/06/07 07:00:23;;;;;;;;;;;;;;;;;;6238266;22;19919;-88
2022/06/07 07:02:50;;;;;;;;;;;;;;;;;;6214759;22;20354;-87
2022/06/07 07:05:17;;;;;;;;;;;;;;;;;;6212157;22;19919;-89
2022/06/07 07:07:46;;;;;;;;;;;;;;;;;;6206795;23;19923;-87
2022/06/07 07:10:12;;;;;;;;;;;;;;;;;;6210208;23;19953;-87
2022/06/07 07:12:40;;;;;;;;;;;;;;;;;;6207340;23;19915;-87
2022/06/07 07:15:07;;;;;;;;;;;;;;;;;;6208652;23;20283;-87
2022/06/07 07:17:33;;;;;;;;;;;;;;;;;;6233785;23;19919;-86
2022/06/07 07:20:00;;;;;;;;;;;;;;;;;;6211963;23;19969;-87
2022/06/07 07:22:27;;;;;;;;;;;;;;;;;;6207650;23;20633;-87
2022/06/07 07:24:58;;;;;;;;;;;;;;;;;;6235803;23;20003;-87
2022/06/07 07:27:25;;;;;;;;;;;;;;;;;;6232190;23;19922;-87
2022/06/07 07:30:13;;;;;;;;;;;;;;;;;;6196528;23;20049;-87
2022/06/07 07:32:41;;;;;;;;;;;;;;;;;;6231637;23;19919;-87
2022/06/07 07:35:08;;;;;;;;;;;;;;;;;;6209026;23;19927;-87
2022/06/07 07:37:34;;;;;;;;;;;;;;;;;;6208023;23;19959;-87
2022/06/07 07:40:01;;;;;;;;;;;;;;;;;;6209639;23;19958;-86
2022/06/07 07:42:27;;;;;;;;;;;;;;;;;;6229912;23;20324;-87
2022/06/07 07:44:54;;;;;;;;;;;;;;;;;;6235063;23;19990;-87
2022/06/07 07:47:22;;;;;;;;;;;;;;;;;;6235474;23;19990;-86
2022/06/07 07:49:54;;;;;;;;;;;;;;;;;;6236257;22;20018;-87
2022/06/07 07:52:23;;;;;;;;;;;;;;;;;;6235097;23;19923;-87
2022/06/07 07:54:51;;;;;;;;;;;;;;;;;;6208562;23;20221;-87
2022/06/07 07:57:18;;;;;;;;;;;;;;;;;;6182940;23;19928;-86
2022/06/07 07:59:45;;;;;;;;;;;;;;;;;;6207985;23;20027;-87
2022/06/07 08:02:15;;;;;;;;;;;;;;;;;;6235626;23;19943;-87
2022/06/07 08:04:42;;;;;;;;;;;;;;;;;;6234933;23;19942;-87
2022/06/07 08:07:10;;;;;;;;;;;;;;;;;;6235195;23;20340;-86
2022/06/07 08:09:37;;;;;;;;;;;;;;;;;;6232350;23;19920;-87
2022/06/07 08:12:06;;;;;;;;;;;;;;;;;;6228519;23;19925;-87
2022/06/07 08:14:32;;;;;;;;;;;;;;;;;;6231946;23;19923;-86
2022/06/07 08:16:59;;;;;;;;;;;;;;;;;;6184489;23;19924;-86
2022/06/07 08:19:26;;;;;;;;;;;;;;;;;;6207629;23;20352;-87
2022/06/07 08:21:53;;;;;;;;;;;;;;;;;;6185821;23;19919;-86
2022/06/07 08:24:19;;;;;;;;;;;;;;;;;;6236111;23;19925;-86
2022/06/07 08:26:48;;;;;;;;;;;;;;;;;;6236015;23;20307;-86
2022/06/07 08:29:14;;;;;;;;;;;;;;;;;;6235833;23;19986;-86
2022/06/07 08:31:41;;;;;;;;;;;;;;;;;;6233189;23;20344;-86
2022/06/07 08:39:43;;;;;;;;;;;;;;;;;;6233598;23;19926;-86
2022/06/07 08:42:10;;;;;;;;;;;;;;;;;;6186724;23;20600;-86
2022/06/07 08:44:36;;;;;;;;;;;;;;;;;;6208823;23;20681;-86
2022/06/07 08:47:03;;;;;;;;;;;;;;;;;;6236432;23;19920;-87
2022/06/07 08:49:29;;;;;;;;;;;;;;;;;;6236097;23;20225;-86
2022/06/07 08:52:02;;;;;;;;;;;;;;;;;;6237265;23;19961;-86
2022/06/07 08:54:32;;;;;;;;;;;;;;;;;;6208254;23;19919;-87
2022/06/07 08:56:59;;;;;;;;;;;;;;;;;;6185547;23;19927;-86
2022/06/07 08:59:25;;;;;;;;;;;;;;;;;;6208011;23;20229;-86
2022/06/07 09:01:52;;;;;;;;;;;;;;;;;;6211471;23;19956;-85
2022/06/07 09:04:20;;;;;;;;;;;;;;;;;;6210520;23;20256;-86
2022/06/07 09:06:47;;;;;;;;;;;;;;;;;;6235097;23;20268;-86
2022/06/07 09:09:18;;;;;;;;;;;;;;;;;;6210806;23;20277;-86
2022/06/07 09:14:32;;;;;;;;;;;;;;;;;;6232874;23;20333;-86
2022/06/07 09:16:59;;;;;;;;;;;;;;;;;;6210611;23;19958;-86
2022/06/07 09:19:30;;;;;;;;;;;;;;;;;;6210030;23;19938;-86
2022/06/07 09:22:17;;;;;;;;;;;;;;;;;;6215986;23;19915;-86
2022/06/07 09:24:47;;;;;;;;;;;;;;;;;;6216112;23;19970;-86
2022/06/07 09:27:15;;;;;;;;;;;;;;;;;;6212815;23;19919;-87
2022/06/07 09:29:43;;;;;;;;;;;;;;;;;;6232908;23;19916;-86
2022/06/07 09:32:09;;;;;;;;;;;;;;;;;;6186043;23;20192;-86
2022/06/07 09:34:37;;;;;;;;;;;;;;;;;;6204641;23;19958;-87
2022/06/07 09:37:14;;;;;;;;;;;;;;;;;;6236886;23;19942;-87
2022/06/07 09:39:41;;;;;;;;;;;;;;;;;;6205651;23;19952;-87
2022/06/07 09:42:09;;;;;;;;;;;;;;;;;;6239768;23;19924;-87
2022/06/07 09:44:36;;;;;;;;;;;;;;;;;;6209208;23;19923;-87
2022/06/07 09:47:03;;;;;;;;;;;;;;;;;;6188145;23;19923;-87
2022/06/07 09:49:30;;;;;;;;;;;;;;;;;;6209995;23;19926;-87
2022/06/07 09:51:58;;;;;;;;;;;;;;;;;;6188075;23;19915;-87
2022/06/07 09:54:25;;;;;;;;;;;;;;;;;;6209487;23;19926;-88
2022/06/07 09:56:54;;;;;;;;;;;;;;;;;;6236015;23;19924;-87
2022/06/07 09:59:20;;;;;;;;;;;;;;;;;;6210158;23;19927;-87
2022/06/07 10:01:47;;;;;;;;;;;;;;;;;;6206384;23;20586;-88
2022/06/07 10:04:15;;;;;;;;;;;;;;;;;;6208084;23;19915;-87
2022/06/07 10:06:40;;;;;;;;;;;;;;;;;;6232199;23;19923;-87
2022/06/07 10:09:07;;;;;;;;;;;;;;;;;;6235111;23;19919;-87
2022/06/07 10:11:35;;;;;;;;;;;;;;;;;;6234611;23;19919;-87
2022/06/07 10:14:01;;;;;;;;;;;;;;;;;;6235580;23;19947;-87
2022/06/07 10:16:30;;;;;;;;;;;;;;;;;;6233866;23;19926;-87
2022/06/07 10:18:57;;;;;;;;;;;;;;;;;;6211809;23;20046;-87
2022/06/07 10:21:23;;;;;;;;;;;;;;;;;;6236464;23;19916;-87
2022/06/07 10:23:51;;;;;;;;;;;;;;;;;;6239916;23;20334;-87
2022/06/07 10:26:18;;;;;;;;;;;;;;;;;;6239887;23;19922;-87
2022/06/07 10:28:44;;;;;;;;;;;;;;;;;;6237268;23;19928;-87
2022/06/07 10:31:10;;;;;;;;;;;;;;;;;;6212525;23;19930;-87
2022/06/07 10:33:36;;;;;;;;;;;;;;;;;;6209844;23;19924;-87
2022/06/07 10:36:03;;;;;;;;;;;;;;;;;;6186019;23;19931;-87
2022/06/07 10:38:30;;;;;;;;;;;;;;;;;;6207526;23;19915;-87
2022/06/07 10:40:58;;;;;;;;;;;;;;;;;;6235847;23;19919;-87
2022/06/07 10:43:25;;;;;;;;;;;;;;;;;;6232331;23;19946;-87
2022/06/07 10:45:51;;;;;;;;;;;;;;;;;;6211009;23;20319;-87
2022/06/07 10:48:18;;;;;;;;;;;;;;;;;;6211032;23;19927;-87
2022/06/07 10:50:45;;;;;;;;;;;;;;;;;;6232995;23;19920;-87
2022/06/07 10:53:12;;;;;;;;;;;;;;;;;;6209940;23;19947;-87
2022/06/07 10:55:39;;;;;;;;;;;;;;;;;;6233401;23;19945;-87
2022/06/07 10:58:05;;;;;;;;;;;;;;;;;;6236398;23;19996;-87
2022/06/07 11:00:31;;;;;;;;;;;;;;;;;;6234580;23;19922;-87
2022/06/07 11:03:03;;;;;;;;;;;;;;;;;;6186278;23;19923;-87
2022/06/07 11:11:04;;;;;;;;;;;;;;;;;;6240745;22;20263;-88
2022/06/07 11:13:31;;;;;;;;;;;;;;;;;;6265698;22;20317;-88
2022/06/07 11:15:58;;;;;;;;;;;;;;;;;;6216536;22;19923;-88
2022/06/07 11:18:25;;;;;;;;;;;;;;;;;;6241324;22;19925;-89
2022/06/07 11:20:53;;;;;;;;;;;;;;;;;;6216690;22;19968;-88
2022/06/07 11:23:20;;;;;;;;;;;;;;;;;;6242886;22;19978;-88
2022/06/07 11:25:47;;;;;;;;;;;;;;;;;;6240489;22;19915;-89
2022/06/07 11:28:15;;;;;;;;;;;;;;;;;;6216678;22;19966;-87
2022/06/07 11:30:42;;;;;;;;;;;;;;;;;;6238950;22;19987;-88
2022/06/07 11:33:09;;;;;;;;;;;;;;;;;;6264879;22;20045;-88
2022/06/07 11:35:36;;;;;;;;;;;;;;;;;;6215348;22;19919;-88
2022/06/07 11:38:05;;;;;;;;;;;;;;;;;;6241723;22;20329;-88
2022/06/07 11:40:31;;;;;;;;;;;;;;;;;;6239290;22;19915;-88
2022/06/07 11:42:59;;;;;;;;;;;;;;;;;;6216185;22;20351;-88
2022/06/07 11:45:26;;;;;;;;;;;;;;;;;;6214298;22;20310;-88
2022/06/07 11:47:54;;;;;;;;;;;;;;;;;;6216235;22;19915;-88
2022/06/07 11:50:35;;;;;;;;;;;;;;;;;;6201902;23;20331;-88
2022/06/07 11:53:03;;;;;;;;;;;;;;;;;;6155160;23;19916;-88
2022/06/07 11:55:30;;;;;;;;;;;;;;;;;;6178518;23;20003;-88
2022/06/07 11:57:58;;;;;;;;;;;;;;;;;;6180418;23;19916;-88
2022/06/07 12:00:28;;;;;;;;;;;;;;;;;;6172785;23;20361;-89
2022/06/07 12:02:56;;;;;;;;;;;;;;;;;;6180155;23;19934;-88
2022/06/07 12:05:26;;;;;;;;;;;;;;;;;;6155905;23;19966;-89
2022/06/07 12:07:54;;;;;;;;;;;;;;;;;;6179955;23;19919;-89
2022/06/07 12:10:20;;;;;;;;;;;;;;;;;;6155340;23;19920;-89
2022/06/07 12:12:55;;;;;;;;;;;;;;;;;;6151972;23;20273;-89
2022/06/07 12:15:21;;;;;;;;;;;;;;;;;;6154813;23;20335;-89
2022/06/07 12:17:48;;;;;;;;;;;;;;;;;;6152046;23;20259;-89
2022/06/07 12:20:15;;;;;;;;;;;;;;;;;;6180869;23;19916;-89
2022/06/07 12:22:42;;;;;;;;;;;;;;;;;;6153401;23;19958;-89
2022/06/07 12:25:11;;;;;;;;;;;;;;;;;;6180017;23;19916;-89
2022/06/07 12:27:38;;;;;;;;;;;;;;;;;;6173832;22;19915;-89
2022/06/07 12:30:05;;;;;;;;;;;;;;;;;;6269070;22;20469;-88
2022/06/07 12:32:31;;;;;;;;;;;;;;;;;;6214756;22;19951;-88
2022/06/07 12:34:58;;;;;;;;;;;;;;;;;;6207916;22;19926;-89
2022/06/07 12:37:25;;;;;;;;;;;;;;;;;;6210916;22;19923;-89
2022/06/07 12:39:53;;;;;;;;;;;;;;;;;;6212869;22;19926;-89
2022/06/07 12:42:39;;;;;;;;;;;;;;;;;;;;;
2022/06/07 12:48:53;;;;;;;;;;;;;;;;;;6177689;23;20982;-88
2022/06/07 12:55:06;;;;;;;;;;;;;;;;;;;;;
2022/06/07 13:24:34;;;;;;;;;;;;;;;;;;6201393;22;19930;-88
2022/06/07 13:27:02;;;;;;;;;;;;;;;;;;6206458;23;20485;-88
2022/06/07 13:29:30;;;;;;;;;;;;;;;;;;6226229;23;20435;-89
2022/06/07 13:31:56;;;;;;;;;;;;;;;;;;6230723;23;19969;-88
2022/06/07 13:34:22;;;;;;;;;;;;;;;;;;6223104;23;19923;-88
2022/06/07 13:36:49;;;;;;;;;;;;;;;;;;6229931;23;19927;-88
2022/06/07 13:39:16;;;;;;;;;;;;;;;;;;6205497;23;19955;-88
2022/06/07 13:41:42;;;;;;;;;;;;;;;;;;6178367;23;20817;-88
2022/06/07 13:44:09;;;;;;;;;;;;;;;;;;6179821;23;19969;-88
2022/06/07 13:46:36;;;;;;;;;;;;;;;;;;6201890;23;19920;-88
2022/06/07 13:54:37;;;;;;;;;;;;;;;;;;6226415;23;19920;-88
2022/06/07 13:57:05;;;;;;;;;;;;;;;;;;6230807;23;20000;-89
2022/06/07 13:59:31;;;;;;;;;;;;;;;;;;6227467;23;19922;-87
2022/06/07 14:01:57;;;;;;;;;;;;;;;;;;6205615;23;19919;-88
2022/06/07 14:04:25;;;;;;;;;;;;;;;;;;6201708;23;19926;-88
2022/06/07 14:06:54;;;;;;;;;;;;;;;;;;6204496;23;19916;-88
2022/06/07 14:09:20;;;;;;;;;;;;;;;;;;6179469;23;19919;-88
2022/06/07 14:14:39;;;;;;;;;;;;;;;;;;6227608;23;19915;-88
2022/06/07 14:17:05;;;;;;;;;;;;;;;;;;6203588;23;20449;-88
2022/06/07 14:19:31;;;;;;;;;;;;;;;;;;6201121;23;19920;-88
2022/06/07 14:21:58;;;;;;;;;;;;;;;;;;6227995;23;20045;-88
2022/06/07 14:24:24;;;;;;;;;;;;;;;;;;6226733;23;20000;-88
2022/06/07 14:26:50;;;;;;;;;;;;;;;;;;6228166;23;20383;-88
2022/06/07 14:29:16;;;;;;;;;;;;;;;;;;6224049;23;19920;-89
2022/06/07 14:31:42;;;;;;;;;;;;;;;;;;6201297;23;20229;-88
2022/06/07 14:34:08;;;;;;;;;;;;;;;;;;6203000;23;19927;-89
2022/06/07 14:36:34;;;;;;;;;;;;;;;;;;6200329;23;19923;-89
2022/06/07 14:39:00;;;;;;;;;;;;;;;;;;6203357;23;19973;-87
2022/06/07 14:41:26;;;;;;;;;;;;;;;;;;6177170;23;19920;-88
2022/06/07 14:43:52;;;;;;;;;;;;;;;;;;6183645;23;19950;-89
2022/06/07 14:46:18;;;;;;;;;;;;;;;;;;6206212;23;19923;-88
2022/06/07 14:48:46;;;;;;;;;;;;;;;;;;6203769;23;19919;-88
2022/06/07 14:51:12;;;;;;;;;;;;;;;;;;6205095;23;19947;-89
2022/06/07 14:53:38;;;;;;;;;;;;;;;;;;6199921;23;20280;-88
2022/06/07 14:56:04;;;;;;;;;;;;;;;;;;6203825;23;19943;-88
2022/06/07 14:58:30;;;;;;;;;;;;;;;;;;6198092;23;19930;-89
2022/06/07 15:00:56;;;;;;;;;;;;;;;;;;6200047;23;19920;-89
2022/06/07 15:03:25;;;;;;;;;;;;;;;;;;6199671;23;19999;-89
2022/06/07 15:05:51;;;;;;;;;;;;;;;;;;6199611;23;19915;-88
2022/06/07 15:08:17;;;;;;;;;;;;;;;;;;6224979;23;20632;-89
2022/06/07 15:10:43;;;;;;;;;;;;;;;;;;6225801;23;19919;-89
2022/06/07 15:13:09;;;;;;;;;;;;;;;;;;6226212;23;19958;-88
2022/06/07 15:15:35;;;;;;;;;;;;;;;;;;6204031;23;20618;-88
2022/06/07 15:18:01;;;;;;;;;;;;;;;;;;6204717;23;20326;-89
2022/06/07 15:20:27;;;;;;;;;;;;;;;;;;6201337;23;19924;-90
2022/06/07 15:22:53;;;;;;;;;;;;;;;;;;6229270;23;20221;-90
2022/06/07 15:25:19;;;;;;;;;;;;;;;;;;6201766;23;19977;-89
2022/06/07 15:27:52;;;;;;;;;;;;;;;;;;6201264;23;20388;-89
2022/06/07 15:30:18;;;;;;;;;;;;;;;;;;6203088;23;20212;-89
2022/06/07 15:32:44;;;;;;;;;;;;;;;;;;6224767;23;19990;-88
2022/06/07 15:35:10;;;;;;;;;;;;;;;;;;6230997;23;20332;-88
2022/06/07 15:37:36;;;;;;;;;;;;;;;;;;6227606;23;19923;-89
2022/06/07 15:40:03;;;;;;;;;;;;;;;;;;6221406;23;19920;-89
2022/06/07 15:45:17;;;;;;;;;;;;;;;;;;6224577;23;19930;-90
2022/06/07 15:47:59;;;;;;;;;;;;;;;;;;6221819;23;19919;-89
2022/06/07 15:50:32;;;;;;;;;;;;;;;;;;6223216;23;19919;-88
2022/06/07 15:52:58;;;;;;;;;;;;;;;;;;6224310;23;19926;-89
2022/06/07 15:55:24;;;;;;;;;;;;;;;;;;6197073;23;19920;-89
2022/06/07 16:00:35;;;;;;;;;;;;;;;;;;6222448;23;19920;-89
2022/06/07 16:03:01;;;;;;;;;;;;;;;;;;6199888;23;19919;-88
2022/06/07 16:05:27;;;;;;;;;;;;;;;;;;6198592;23;20115;-89
2022/06/07 16:07:53;;;;;;;;;;;;;;;;;;6202776;23;19919;-89
2022/06/07 16:10:22;;;;;;;;;;;;;;;;;;6227334;23;19916;-88
2022/06/07 16:12:48;;;;;;;;;;;;;;;;;;6199980;23;19924;-89
2022/06/07 16:15:15;;;;;;;;;;;;;;;;;;6202201;23;20236;-88
2022/06/07 16:17:41;;;;;;;;;;;;;;;;;;6201310;23;19923;-89
2022/06/07 16:20:07;;;;;;;;;;;;;;;;;;6179958;23;19927;-89
2022/06/07 16:22:33;;;;;;;;;;;;;;;;;;6176449;23;20329;-89
2022/06/07 16:24:59;;;;;;;;;;;;;;;;;;6203309;23;19923;-88
2022/06/07 16:35:39;;;;;;;;;;;;;;;;;;6202589;23;20263;-87
2022/06/07 16:38:05;;;;;;;;;;;;;;;;;;6230827;23;19923;-88
2022/06/07 16:40:33;;;;;;;;;;;;;;;;;;6174499;23;19919;-88
2022/06/07 16:44:00;;;;;;;;;;;;;;;;;;6177543;23;19927;-89
2022/06/07 16:45:48;;;;;;;;;;;;;;;;;;6226620;23;19923;-88
2022/06/07 16:48:14;;;;;;;;;;;;;;;;;;6229285;22;19924;-88
2022/06/07 16:50:40;;;;;;;;;;;;;;;;;;6175477;23;19988;-89
2022/06/07 16:53:06;;;;;;;;;;;;;;;;;;6226985;23;19919;-89
2022/06/07 16:55:32;;;;;;;;;;;;;;;;;;6226719;23;19926;-90
2022/06/07 16:57:58;;;;;;;;;;;;;;;;;;6226583;23;20248;-90
2022/06/07 17:00:24;;;;;;;;;;;;;;;;;;6198085;23;19923;-88
2022/06/07 17:02:50;;;;;;;;;;;;;;;;;;6228779;23;19927;-89
2022/06/07 17:05:16;;;;;;;;;;;;;;;;;;6202125;23;19920;-89
2022/06/07 17:07:42;;;;;;;;;;;;;;;;;;6199120;23;20540;-89
2022/06/07 17:10:08;;;;;;;;;;;;;;;;;;6202531;23;19924;-90
2022/06/07 17:12:34;;;;;;;;;;;;;;;;;;6174045;23;19920;-89
2022/06/07 17:14:59;;;;;;;;;;;;;;;;;;6226823;23;19950;-88
2022/06/07 17:17:25;;;;;;;;;;;;;;;;;;6199257;23;20407;-88
2022/06/07 17:19:52;;;;;;;;;;;;;;;;;;6204082;23;20244;-89
2022/06/07 17:22:18;;;;;;;;;;;;;;;;;;6181245;23;20233;-90
2022/06/07 17:24:44;;;;;;;;;;;;;;;;;;6213572;23;20178;-89
2022/06/07 17:27:10;;;;;;;;;;;;;;;;;;6204156;23;19919;-90
2022/06/07 17:29:49;;;;;;;;;;;;;;;;;;6179315;23;19927;-89
2022/06/07 17:32:22;;;;;;;;;;;;;;;;;;6236074;23;19919;-89
2022/06/07 17:34:48;;;;;;;;;;;;;;;;;;6209979;23;19923;-88
2022/06/07 17:37:14;;;;;;;;;;;;;;;;;;6207731;23;20829;-88
2022/06/07 17:39:40;;;;;;;;;;;;;;;;;;6228986;23;19942;-89
2022/06/07 17:42:06;;;;;;;;;;;;;;;;;;6206888;23;19974;-89
2022/06/07 17:44:32;;;;;;;;;;;;;;;;;;6205446;23;19916;-90
2022/06/07 17:46:58;;;;;;;;;;;;;;;;;;6228785;23;19933;-89
2022/06/07 17:49:24;;;;;;;;;;;;;;;;;;6224797;23;19915;-89
2022/06/07 17:51:50;;;;;;;;;;;;;;;;;;6229809;23;19919;-89
2022/06/07 17:54:16;;;;;;;;;;;;;;;;;;6205482;23;19926;-89
2022/06/07 17:56:42;;;;;;;;;;;;;;;;;;6228558;23;20612;-89
2022/06/07 17:59:08;;;;;;;;;;;;;;;;;;6204534;23;19930;-88
2022/06/07 18:01:34;;;;;;;;;;;;;;;;;;6203076;23;19995;-88
2022/06/07 18:04:00;;;;;;;;;;;;;;;;;;6205858;23;20355;-89
2022/06/07 18:06:26;;;;;;;;;;;;;;;;;;6226869;23;19919;-89
2022/06/07 18:08:55;;;;;;;;;;;;;;;;;;6229435;23;19927;-89
2022/06/07 18:11:28;;;;;;;;;;;;;;;;;;6203789;23;19920;-88
2022/06/07 18:13:55;;;;;;;;;;;;;;;;;;6203107;23;19919;-89